createdAt,value
2018-08-04T00:00:47.374Z,68.68
2018-08-04T00:05:34.898Z,67.89
2018-08-04T00:10:21.097Z,69.67
2018-08-04T00:15:07.725Z,69.27
2018-08-04T00:19:51.323Z,68.16
2018-08-04T00:24:35.884Z,68.88
2018-08-04T00:29:19.406Z,68.98
2018-08-04T00:34:06.609Z,69.51
2018-08-04T00:38:50.244Z,69.52
2018-08-04T00:43:34.752Z,69.79
2018-08-04T00:48:18.242Z,68.17
2018-08-04T00:53:06.205Z,69.08
2018-08-04T00:57:49.783Z,67.91
2018-08-04T01:02:34.485Z,66.94
2018-08-04T01:07:17.917Z,66.11
2018-08-04T01:12:01.485Z,65.07
2018-08-04T01:16:45.051Z,63.07
2018-08-04T01:21:28.429Z,61.81
2018-08-04T01:26:15.638Z,62.19
2018-08-04T01:30:59.247Z,62.34
2018-08-04T01:35:48.401Z,62.71
2018-08-04T01:40:31.959Z,63.86
2018-08-04T01:45:19.359Z,64.93
2018-08-04T01:50:02.898Z,65.02
2018-08-04T01:54:52.028Z,66.34
2018-08-04T01:59:35.679Z,67.70
2018-08-04T02:04:22.595Z,67.80
2018-08-04T02:09:09.496Z,68.40
2018-08-04T02:13:56.534Z,66.75
2018-08-04T02:18:40.189Z,67.71
2018-08-04T02:23:27.239Z,69.02
2018-08-04T02:28:10.856Z,68.58
2018-08-04T02:32:55.477Z,70.19
2018-08-04T02:37:38.989Z,70.14
2018-08-04T02:42:23.540Z,70.31
2018-08-04T02:47:06.938Z,72.19
2018-08-04T02:51:50.666Z,71.66
2018-08-04T02:56:34.299Z,72.21
2018-08-04T03:01:17.762Z,73.16
2018-08-04T03:06:05.706Z,73.04
2018-08-04T03:10:49.598Z,73.51
2018-08-04T03:15:36.506Z,73.50
2018-08-04T03:20:20.092Z,72.69
2018-08-04T03:25:07.890Z,71.15
2018-08-04T03:29:51.546Z,72.00
2018-08-04T03:34:35.309Z,71.70
2018-08-04T03:39:18.790Z,72.04
2018-08-04T03:44:03.286Z,70.52
2018-08-04T03:48:46.914Z,70.08
2018-08-04T03:53:34.238Z,68.76
2018-08-04T03:58:17.578Z,69.43
2018-08-04T04:03:01.363Z,69.08
2018-08-04T04:07:45.057Z,68.58
2018-08-04T04:12:30.599Z,68.56
2018-08-04T04:17:14.027Z,68.37
2018-08-04T04:21:57.772Z,67.25
2018-08-04T04:26:41.409Z,67.98
2018-08-04T04:31:25.081Z,67.22
2018-08-04T04:36:08.621Z,67.23
2018-08-04T04:40:52.209Z,67.11
2018-08-04T04:45:39.439Z,66.50
2018-08-04T04:50:23.075Z,66.17
2018-08-04T04:55:06.795Z,66.32
2018-08-04T04:59:50.500Z,65.82
2018-08-04T05:04:39.231Z,66.19
2018-08-04T05:09:23.546Z,65.60
2018-08-04T05:14:10.354Z,65.31
2018-08-04T05:18:55.468Z,66.43
2018-08-04T05:23:43.006Z,66.81
2018-08-04T05:28:27.530Z,66.87
2018-08-04T05:33:14.562Z,65.87
2018-08-04T05:38:00.007Z,66.54
2018-08-04T05:42:43.545Z,66.52
2018-08-04T05:47:27.173Z,66.67
2018-08-04T05:52:10.838Z,66.65
2018-08-04T05:56:54.417Z,66.90
2018-08-04T06:01:38.866Z,67.61
2018-08-04T06:06:22.508Z,66.83
2018-08-04T06:11:06.153Z,65.93
2018-08-04T06:15:49.759Z,66.13
2018-08-04T06:20:33.331Z,65.35
2018-08-04T06:25:19.949Z,63.96
2018-08-04T06:30:03.465Z,60.55
2018-08-04T06:34:47.005Z,60.51
2018-08-04T06:39:30.617Z,58.43
2018-08-04T06:44:17.482Z,60.88
2018-08-04T06:49:00.933Z,61.55
2018-08-04T06:53:45.413Z,59.37
2018-08-04T06:58:37.061Z,56.59
2018-08-04T07:03:24.099Z,55.91
2018-08-04T07:08:07.666Z,58.61
2018-08-04T07:12:51.283Z,59.81
2018-08-04T07:17:34.863Z,59.59
2018-08-04T07:22:22.165Z,57.39
2018-08-04T07:27:06.107Z,57.18
2018-08-04T07:31:49.605Z,57.78
2018-08-04T07:36:33.218Z,57.95
2018-08-04T07:41:16.945Z,54.57
2018-08-04T07:46:00.473Z,57.61
2018-08-04T07:50:44.081Z,58.53
2018-08-04T07:55:27.696Z,58.50
2018-08-04T08:00:11.525Z,59.77
2018-08-04T08:04:55.297Z,57.16
2018-08-04T08:09:38.829Z,56.22
2018-08-04T08:14:23.438Z,56.53
2018-08-04T08:19:07.017Z,54.39
2018-08-04T08:23:55.248Z,54.54
2018-08-04T08:28:40.452Z,52.79
2018-08-04T08:33:25.172Z,57.50
2018-08-04T08:38:08.644Z,52.72
2018-08-04T08:42:55.505Z,53.65
2018-08-04T08:47:39.069Z,50.87
2018-08-04T08:52:23.597Z,50.91
2018-08-04T08:57:07.271Z,48.80
2018-08-04T09:01:50.856Z,49.20
2018-08-04T09:06:34.359Z,49.17
2018-08-04T09:11:18.002Z,48.52
2018-08-04T09:16:01.552Z,48.99
2018-08-04T09:20:45.142Z,50.35
2018-08-04T09:25:28.799Z,47.49
2018-08-04T09:30:13.576Z,45.70
2018-08-04T09:35:01.103Z,48.52
2018-08-04T09:39:44.672Z,42.99
2018-08-04T09:44:31.223Z,48.77
2018-08-04T09:49:14.717Z,46.18
2018-08-04T09:54:01.816Z,45.35
2018-08-04T09:58:45.443Z,45.85
2018-08-04T10:03:29.228Z,46.60
2018-08-04T10:08:12.705Z,42.27
2018-08-04T10:13:00.045Z,47.38
2018-08-04T10:17:43.686Z,45.76
2018-08-04T10:22:27.337Z,40.42
2018-08-04T10:27:10.919Z,43.07
2018-08-04T10:31:58.406Z,45.72
2018-08-04T10:36:41.822Z,46.01
2018-08-04T10:41:25.557Z,44.26
2018-08-04T10:46:09.019Z,44.76
2018-08-04T10:50:52.550Z,45.88
2018-08-04T10:55:36.189Z,43.66
2018-08-04T11:00:19.690Z,45.14
2018-08-04T11:05:03.202Z,48.06
2018-08-04T11:09:46.722Z,47.51
2018-08-04T11:14:33.242Z,46.92
2018-08-04T11:19:16.874Z,48.48
2018-08-04T11:24:01.495Z,46.07
2018-08-04T11:28:44.937Z,49.07
2018-08-04T11:33:29.622Z,48.55
2018-08-04T11:38:13.180Z,50.06
2018-08-04T11:42:56.849Z,51.63
2018-08-04T11:47:40.478Z,50.35
2018-08-04T11:52:24.219Z,51.01
2018-08-04T11:57:07.851Z,50.64
2018-08-04T12:01:51.561Z,50.65
2018-08-04T12:06:35.797Z,50.80
2018-08-04T12:11:19.478Z,51.83
2018-08-04T12:16:03.000Z,49.51
2018-08-04T12:20:46.488Z,51.63
2018-08-04T12:25:30.056Z,51.11
2018-08-04T12:30:13.516Z,49.34
2018-08-04T12:34:57.068Z,50.95
2018-08-04T12:39:40.449Z,48.67
2018-08-04T12:44:27.658Z,49.60
2018-08-04T12:49:11.372Z,52.52
2018-08-04T12:53:55.155Z,49.87
2018-08-04T12:58:38.658Z,50.91
2018-08-04T13:03:25.576Z,48.82
2018-08-04T13:08:08.933Z,50.36
2018-08-04T13:12:52.584Z,50.77
2018-08-04T13:17:36.111Z,47.57
2018-08-04T13:22:23.110Z,50.46
2018-08-04T13:27:07.032Z,51.31
2018-08-04T13:31:50.459Z,50.27
2018-08-04T13:36:33.946Z,48.91
2018-08-04T13:41:17.657Z,47.41
2018-08-04T13:46:01.307Z,48.99
2018-08-04T13:50:48.770Z,50.01
2018-08-04T13:55:32.390Z,49.24
2018-08-04T14:00:19.085Z,48.63
2018-08-04T14:05:02.697Z,47.64
2018-08-04T14:09:46.318Z,47.62
2018-08-04T14:14:33.469Z,48.26
2018-08-04T14:19:17.043Z,47.89
2018-08-04T14:24:01.640Z,47.66
2018-08-04T14:28:45.680Z,49.37
2018-08-04T14:33:30.046Z,49.54
2018-08-04T14:38:13.595Z,49.45
2018-08-04T14:42:57.425Z,51.04
2018-08-04T14:47:40.949Z,50.18
2018-08-04T14:52:24.555Z,50.38
2018-08-04T14:57:08.050Z,51.22
2018-08-04T15:01:52.841Z,51.50
2018-08-04T15:06:36.480Z,53.29
2018-08-04T15:11:19.996Z,54.24
2018-08-04T15:16:07.057Z,55.73
2018-08-04T15:20:51.701Z,55.10
2018-08-04T15:25:35.145Z,56.96
2018-08-04T15:30:19.807Z,57.69
2018-08-04T15:35:03.272Z,56.78
2018-08-04T15:39:46.869Z,56.24
2018-08-04T15:44:30.530Z,56.23
2018-08-04T15:49:14.056Z,56.41
2018-08-04T15:54:00.731Z,56.16
2018-08-04T15:58:44.280Z,57.12
2018-08-04T16:03:27.950Z,55.72
2018-08-04T16:08:11.548Z,54.85
2018-08-04T16:12:55.166Z,56.05
2018-08-04T16:17:38.705Z,55.70
2018-08-04T16:22:25.921Z,55.94
2018-08-04T16:27:09.611Z,56.64
2018-08-04T16:31:53.325Z,57.02
2018-08-04T16:36:36.789Z,58.03
2018-08-04T16:41:20.544Z,58.39
2018-08-04T16:46:04.080Z,57.14
2018-08-04T16:50:52.859Z,58.43
2018-08-04T16:55:36.343Z,59.15
2018-08-04T17:00:20.198Z,58.73
2018-08-04T17:05:03.755Z,59.16
2018-08-04T17:09:48.470Z,60.02
2018-08-04T17:14:33.104Z,59.90
2018-08-04T17:19:16.731Z,59.32
2018-08-04T17:24:00.443Z,60.44
2018-08-04T17:28:44.030Z,59.61
2018-08-04T17:33:27.690Z,59.95
2018-08-04T17:38:11.152Z,59.66
2018-08-04T17:42:54.772Z,60.15
2018-08-04T17:47:38.453Z,59.87
2018-08-04T17:52:23.556Z,60.55
2018-08-04T17:57:07.169Z,60.91
2018-08-04T18:01:51.596Z,60.20
2018-08-04T18:06:35.136Z,60.09
2018-08-04T18:11:22.129Z,60.06
2018-08-04T18:16:05.692Z,58.46
2018-08-04T18:20:49.323Z,57.18
2018-08-04T18:25:32.882Z,57.46
2018-08-04T18:30:17.806Z,55.53
2018-08-04T18:35:01.458Z,55.33
2018-08-04T18:39:50.570Z,54.19
2018-08-04T18:44:34.031Z,54.07
2018-08-04T18:49:17.493Z,54.64
2018-08-04T18:54:01.068Z,54.57
2018-08-04T18:58:44.660Z,53.88
2018-08-04T19:03:33.297Z,55.41
2018-08-04T19:08:17.663Z,55.61
2018-08-04T19:13:04.273Z,55.58
2018-08-04T19:17:51.125Z,55.07
2018-08-04T19:22:38.444Z,55.16
2018-08-04T19:27:22.057Z,54.63
2018-08-04T19:32:09.838Z,55.24
2018-08-04T19:36:53.449Z,54.22
2018-08-04T19:41:40.648Z,54.96
2018-08-04T19:46:24.485Z,54.55
2018-08-04T19:51:09.889Z,56.61
2018-08-04T19:55:53.519Z,57.21
2018-08-04T20:00:38.180Z,58.18
2018-08-04T20:05:21.771Z,57.03
2018-08-04T20:10:06.405Z,55.96
2018-08-04T20:14:49.867Z,56.12
2018-08-04T20:19:37.570Z,55.40
2018-08-04T20:24:21.031Z,55.74
2018-08-04T20:29:04.586Z,56.15
2018-08-04T20:33:48.278Z,55.72
2018-08-04T20:38:31.902Z,55.48
2018-08-04T20:43:15.526Z,56.21
2018-08-04T20:47:59.041Z,56.42
2018-08-04T20:52:46.150Z,55.73
2018-08-04T20:57:29.703Z,55.71
2018-08-04T21:02:16.484Z,56.04
2018-08-04T21:07:00.857Z,55.33
2018-08-04T21:11:52.025Z,54.57
2018-08-04T21:16:35.544Z,54.38
2018-08-04T21:21:23.088Z,54.19
2018-08-04T21:26:06.613Z,54.16
2018-08-04T21:30:51.574Z,52.99
2018-08-04T21:35:35.141Z,52.61
2018-08-04T21:40:22.561Z,52.17
2018-08-04T21:45:06.137Z,52.03
2018-08-04T21:49:50.758Z,51.66
2018-08-04T21:54:34.090Z,52.44
2018-08-04T21:59:18.786Z,51.76
2018-08-04T22:04:02.488Z,51.36
2018-08-04T22:09:00.363Z,52.01
2018-08-04T22:13:43.975Z,50.38
2018-08-04T22:18:27.422Z,50.55
2018-08-04T22:23:12.001Z,51.18
2018-08-04T22:27:56.460Z,50.13
2018-08-04T22:32:43.442Z,50.81
2018-08-04T22:37:27.005Z,51.52
2018-08-04T22:42:10.526Z,52.16
2018-08-04T22:46:54.179Z,51.97
2018-08-04T22:51:40.697Z,52.75
2018-08-04T22:56:24.747Z,51.92
2018-08-04T23:01:11.557Z,52.19
2018-08-04T23:05:55.213Z,52.08
2018-08-04T23:10:43.148Z,52.54
2018-08-04T23:15:27.565Z,53.28
2018-08-04T23:20:12.309Z,52.76
2018-08-04T23:24:55.868Z,53.10
2018-08-04T23:29:43.282Z,52.34
2018-08-04T23:34:26.717Z,52.16
2018-08-04T23:39:11.089Z,51.87
2018-08-04T23:43:54.621Z,52.49
2018-08-04T23:48:38.221Z,53.33
2018-08-04T23:53:21.784Z,53.01
2018-08-04T23:58:05.393Z,53.83
